Time;durP1;ratioP1;P1;durP2;ratioP2;P2;SDS_P1;SDS_P2;PMS_P1;PMS_P2;Temp;Humidity;BMP_temperature;BMP_pressure;BME280_temperature;BME280_humidity;BME280_pressure;Samples;Min_cycle;Max_cycle;Signal;HPM_P1;HPM_P2
2023/01/22 00:01:33;;;;;;;1999.90;999.90;;;0.00;99.90;;;;;;5077230;28;20029;-73
2023/01/22 00:03:59;;;;;;;1999.90;999.90;;;0.00;99.90;;;;;;5076236;28;20082;-74
2023/01/22 00:06:25;;;;;;;1999.90;999.90;;;0.00;99.90;;;;;;5075645;28;20082;-73
2023/01/22 00:08:51;;;;;;;1999.90;999.90;;;0.00;99.90;;;;;;5075601;28;20072;-76
2023/01/22 00:11:18;;;;;;;1999.90;999.90;;;0.00;99.90;;;;;;5078014;28;20040;-74
2023/01/22 00:13:44;;;;;;;1999.90;999.90;;;-0.10;99.90;;;;;;5076977;28;20040;-76
2023/01/22 00:16:15;;;;;;;1999.90;999.90;;;0.00;99.90;;;;;;5078832;28;20025;-74
2023/01/22 00:18:41;;;;;;;1999.90;999.90;;;-0.10;99.90;;;;;;5077631;28;20403;-73
2023/01/22 00:21:12;;;;;;;1999.90;999.90;;;0.00;99.90;;;;;;5079035;28;20777;-76
2023/01/22 00:23:38;;;;;;;1999.90;999.90;;;0.00;99.90;;;;;;5076675;28;20552;-76
2023/01/22 00:26:12;;;;;;;1999.90;999.90;;;0.00;99.90;;;;;;5078464;28;20040;-74
2023/01/22 00:28:40;;;;;;;1999.90;999.90;;;0.00;99.90;;;;;;5074828;28;20549;-73
2023/01/22 00:31:06;;;;;;;1999.90;999.90;;;0.00;99.90;;;;;;5076489;28;20052;-74
2023/01/22 00:33:33;;;;;;;1999.90;999.90;;;0.00;99.90;;;;;;5078070;28;20040;-76
2023/01/22 00:36:12;;;;;;;1999.90;999.90;;;0.00;99.90;;;;;;5078178;28;20040;-74
2023/01/22 00:38:37;;;;;;;1999.90;999.90;;;0.00;99.90;;;;;;5077436;28;20033;-74
2023/01/22 00:41:05;;;;;;;1999.90;999.90;;;0.00;99.90;;;;;;5077763;28;20519;-74
2023/01/22 00:43:32;;;;;;;1999.90;999.90;;;0.00;99.90;;;;;;5076869;28;20029;-74
2023/01/22 00:45:58;;;;;;;1999.90;999.90;;;0.10;99.90;;;;;;5077870;28;20067;-74
2023/01/22 00:48:24;;;;;;;1999.90;999.90;;;0.10;99.90;;;;;;5074638;28;20100;-76
2023/01/22 00:50:49;;;;;;;1999.90;999.90;;;0.10;99.90;;;;;;5078053;28;20037;-75
2023/01/22 00:53:15;;;;;;;1999.90;999.90;;;0.10;99.90;;;;;;5078030;28;20123;-76
2023/01/22 00:55:50;;;;;;;1999.90;999.90;;;0.10;99.90;;;;;;5077176;28;20045;-75
2023/01/22 00:58:15;;;;;;;1999.90;999.90;;;0.10;99.90;;;;;;5077398;28;20025;-75
2023/01/22 01:00:41;;;;;;;1999.90;999.90;;;0.00;99.90;;;;;;5081594;28;20040;-75
2023/01/22 01:05:50;;;;;;;1999.90;999.90;;;0.00;99.90;;;;;;5081279;28;20032;-76
2023/01/22 01:08:16;;;;;;;1999.90;999.90;;;0.00;99.90;;;;;;5079435;28;20040;-75
2023/01/22 01:10:41;;;;;;;1999.90;999.90;;;0.00;99.90;;;;;;5078575;28;20129;-75
2023/01/22 01:13:07;;;;;;;1999.90;999.90;;;0.00;99.90;;;;;;5080258;28;20498;-74
2023/01/22 01:15:33;;;;;;;1999.90;999.90;;;0.00;99.90;;;;;;5081760;28;20398;-74
2023/01/22 01:17:59;;;;;;;1999.90;999.90;;;0.00;99.90;;;;;;5080807;28;20029;-74
2023/01/22 01:20:24;;;;;;;1999.90;999.90;;;0.00;99.90;;;;;;5078556;28;20047;-74
2023/01/22 01:22:50;;;;;;;1999.90;999.90;;;0.00;99.90;;;;;;5080482;28;20244;-73
2023/01/22 01:25:15;;;;;;;1999.90;999.90;;;0.00;99.90;;;;;;5080831;28;20091;-74
2023/01/22 01:27:41;;;;;;;1999.90;999.90;;;0.00;99.90;;;;;;5081445;28;20558;-74
2023/01/22 01:30:07;;;;;;;1999.90;999.90;;;0.00;99.90;;;;;;5078838;28;20127;-73
2023/01/22 01:32:33;;;;;;;1999.90;999.90;;;0.00;99.90;;;;;;5079265;28;20078;-73
2023/01/22 01:34:58;;;;;;;1999.90;999.90;;;0.00;99.90;;;;;;5076591;28;20033;-73
2023/01/22 01:37:24;;;;;;;1999.90;999.90;;;0.00;99.90;;;;;;5076893;28;20495;-75
2023/01/22 01:39:51;;;;;;;1999.90;999.90;;;0.10;99.90;;;;;;5075419;28;20033;-76
2023/01/22 01:42:24;;;;;;;1999.90;999.90;;;0.10;99.90;;;;;;5077238;28;20025;-76
2023/01/22 01:45:25;;;;;;;1999.90;999.90;;;0.10;99.90;;;;;;5076855;28;20033;-76
2023/01/22 01:48:16;;;;;;;1999.90;999.90;;;0.10;99.90;;;;;;5080463;28;20121;-76
2023/01/22 01:50:45;;;;;;;1999.90;999.90;;;0.10;99.90;;;;;;5080787;28;20057;-76
2023/01/22 01:53:11;;;;;;;1999.90;999.90;;;0.10;99.90;;;;;;5079949;28;20061;-74
2023/01/22 01:55:38;;;;;;;1999.90;999.90;;;0.10;99.90;;;;;;5080884;28;20064;-73
2023/01/22 01:58:10;;;;;;;1999.90;999.90;;;0.10;99.90;;;;;;5078778;28;20029;-74
2023/01/22 02:00:39;;;;;;;1999.90;999.90;;;0.10;99.90;;;;;;5080440;28;20037;-74
2023/01/22 02:03:05;;;;;;;1999.90;999.90;;;0.10;99.90;;;;;;5078843;28;20029;-74
2023/01/22 02:05:36;;;;;;;1999.90;999.90;;;0.20;99.90;;;;;;5077114;28;20029;-74
2023/01/22 02:08:02;;;;;;;1999.90;999.90;;;0.10;99.90;;;;;;5080561;28;20064;-74
2023/01/22 02:10:28;;;;;;;1999.90;999.90;;;0.10;99.90;;;;;;5080449;28;20061;-74
2023/01/22 02:12:56;;;;;;;1999.90;999.90;;;0.10;99.90;;;;;;5082760;28;20021;-74
2023/01/22 02:15:22;;;;;;;1999.90;999.90;;;0.10;99.90;;;;;;5094734;28;20045;-73
2023/01/22 02:17:48;;;;;;;1999.90;999.90;;;0.10;99.90;;;;;;5097385;27;20273;-74
2023/01/22 02:20:13;;;;;;;1999.90;999.90;;;0.10;99.90;;;;;;5079019;28;20083;-74
2023/01/22 02:22:39;;;;;;;1999.90;999.90;;;0.10;99.90;;;;;;5080333;28;20543;-74
2023/01/22 02:25:07;;;;;;;1999.90;999.90;;;0.10;99.90;;;;;;5080035;28;20033;-74
2023/01/22 02:27:33;;;;;;;1999.90;999.90;;;0.10;99.90;;;;;;5077527;28;20040;-74
2023/01/22 02:29:58;;;;;;;1999.90;999.90;;;0.10;99.90;;;;;;5079683;28;20044;-74
2023/01/22 02:32:24;;;;;;;1999.90;999.90;;;0.10;99.90;;;;;;5079367;28;20052;-74
2023/01/22 02:34:50;;;;;;;1999.90;999.90;;;0.10;99.90;;;;;;5079691;28;20083;-74
2023/01/22 02:37:16;;;;;;;1999.90;999.90;;;0.10;99.90;;;;;;5079769;28;20033;-73
2023/01/22 02:39:42;;;;;;;1999.90;999.90;;;0.10;99.90;;;;;;5080296;28;20037;-74
2023/01/22 02:42:08;;;;;;;1999.90;999.90;;;0.10;99.90;;;;;;5078745;28;20025;-74
2023/01/22 02:44:33;;;;;;;1999.90;999.90;;;0.10;99.90;;;;;;5080296;28;20033;-74
2023/01/22 02:46:59;;;;;;;1999.90;999.90;;;0.10;99.90;;;;;;5076149;28;20036;-74
2023/01/22 02:49:25;;;;;;;1999.90;999.90;;;0.10;99.90;;;;;;5079278;28;20036;-73
2023/01/22 02:51:51;;;;;;;1999.90;999.90;;;0.10;99.90;;;;;;5077793;28;20033;-74
2023/01/22 02:54:16;;;;;;;1999.90;999.90;;;0.10;99.90;;;;;;5078214;28;20471;-74
2023/01/22 02:56:42;;;;;;;1999.90;999.90;;;0.10;99.90;;;;;;5079471;28;20041;-74
2023/01/22 02:59:08;;;;;;;1999.90;999.90;;;0.10;99.90;;;;;;5078553;28;20037;-73
2023/01/22 03:01:33;;;;;;;1999.90;999.90;;;0.10;99.90;;;;;;5078655;28;20029;-74
2023/01/22 03:04:09;;;;;;;1999.90;999.90;;;0.10;99.90;;;;;;5080312;28;20033;-74
2023/01/22 03:06:36;;;;;;;1999.90;999.90;;;0.20;99.90;;;;;;5078836;28;20406;-73
2023/01/22 03:09:02;;;;;;;1999.90;999.90;;;0.10;99.90;;;;;;5076973;28;20085;-73
2023/01/22 03:11:30;;;;;;;1999.90;999.90;;;0.20;99.90;;;;;;5077520;28;20036;-74
2023/01/22 03:22:13;;;;;;;1999.90;999.90;;;0.20;99.90;;;;;;5079756;28;20029;-74
2023/01/22 03:24:38;;;;;;;1999.90;999.90;;;0.20;99.90;;;;;;5083480;28;20029;-73
2023/01/22 03:27:04;;;;;;;1999.90;999.90;;;0.20;99.90;;;;;;5078828;28;20499;-74
2023/01/22 03:29:29;;;;;;;1999.90;999.90;;;0.10;99.90;;;;;;5078479;28;20044;-74
2023/01/22 03:31:55;;;;;;;1999.90;999.90;;;0.20;99.90;;;;;;5077069;28;20364;-74
2023/01/22 03:34:24;;;;;;;1999.90;999.90;;;0.20;99.90;;;;;;5075262;28;20131;-74
2023/01/22 03:36:49;;;;;;;1999.90;999.90;;;0.20;99.90;;;;;;5077621;28;20036;-74
2023/01/22 03:39:15;;;;;;;1999.90;999.90;;;0.20;99.90;;;;;;5078871;28;20036;-74
2023/01/22 03:41:40;;;;;;;1999.90;999.90;;;0.20;99.90;;;;;;5078961;28;20510;-74
2023/01/22 03:44:10;;;;;;;1999.90;999.90;;;0.20;99.90;;;;;;5078035;28;20475;-74
2023/01/22 03:46:36;;;;;;;1999.90;999.90;;;0.20;99.90;;;;;;5076087;28;20083;-74
2023/01/22 03:49:02;;;;;;;1999.90;999.90;;;0.20;99.90;;;;;;5076273;28;20033;-74
2023/01/22 03:51:28;;;;;;;1999.90;999.90;;;0.20;99.90;;;;;;5076544;28;20029;-75
2023/01/22 03:53:53;;;;;;;1999.90;999.90;;;0.30;99.90;;;;;;5073118;28;20069;-74
2023/01/22 03:56:21;;;;;;;1999.90;999.90;;;0.30;99.90;;;;;;5074394;28;20055;-74
2023/01/22 03:58:47;;;;;;;1999.90;999.90;;;0.30;99.90;;;;;;5073347;28;20487;-74
2023/01/22 04:01:17;;;;;;;1999.90;999.90;;;0.30;99.90;;;;;;5074783;28;20041;-74
2023/01/22 04:03:43;;;;;;;1999.90;999.90;;;0.30;99.90;;;;;;5074156;28;20119;-74
2023/01/22 04:06:09;;;;;;;1999.90;999.90;;;0.30;99.90;;;;;;5074908;28;20429;-74
2023/01/22 04:08:37;;;;;;;1999.90;999.90;;;0.30;99.90;;;;;;5074753;28;20041;-74
2023/01/22 04:11:03;;;;;;;1999.90;999.90;;;0.30;99.90;;;;;;5074943;28;20051;-74
2023/01/22 04:13:30;;;;;;;1999.90;999.90;;;0.30;99.90;;;;;;5074024;28;20043;-74
2023/01/22 04:15:56;;;;;;;1999.90;999.90;;;0.30;99.90;;;;;;5074653;28;20040;-74
2023/01/22 04:18:22;;;;;;;1999.90;999.90;;;0.30;99.90;;;;;;5074485;28;20037;-74
2023/01/22 04:20:49;;;;;;;1999.90;999.90;;;0.40;99.90;;;;;;5074650;28;20041;-74
2023/01/22 04:23:15;;;;;;;1999.90;999.90;;;0.40;99.90;;;;;;5075062;28;20485;-74
2023/01/22 04:25:41;;;;;;;1999.90;999.90;;;0.40;99.90;;;;;;5074586;28;20041;-74
2023/01/22 04:28:07;;;;;;;1999.90;999.90;;;0.40;99.90;;;;;;5074593;28;20469;-74
2023/01/22 04:30:33;;;;;;;1999.90;999.90;;;0.40;99.90;;;;;;5074727;28;20037;-74
2023/01/22 04:32:59;;;;;;;1999.90;999.90;;;0.40;99.90;;;;;;5075914;28;20037;-74
2023/01/22 04:35:24;;;;;;;1999.90;999.90;;;0.40;99.90;;;;;;5079953;28;20456;-74
2023/01/22 04:37:50;;;;;;;1999.90;999.90;;;0.40;99.90;;;;;;5103682;28;20035;-74
2023/01/22 04:40:15;;;;;;;1999.90;999.90;;;0.30;99.90;;;;;;5087567;28;20052;-74
2023/01/22 04:42:41;;;;;;;1999.90;999.90;;;0.30;99.90;;;;;;5076681;28;20029;-74
2023/01/22 04:45:07;;;;;;;1999.90;999.90;;;0.30;99.90;;;;;;5078031;28;20033;-74
2023/01/22 04:47:33;;;;;;;1999.90;999.90;;;0.30;99.90;;;;;;5077403;28;20037;-74
2023/01/22 04:49:59;;;;;;;1999.90;999.90;;;0.30;99.90;;;;;;5077979;28;20075;-74
2023/01/22 04:52:24;;;;;;;1999.90;999.90;;;0.30;99.90;;;;;;5077947;28;20025;-74
2023/01/22 04:54:50;;;;;;;1999.90;999.90;;;0.30;99.90;;;;;;5077664;28;20518;-74
2023/01/22 04:57:17;;;;;;;1999.90;999.90;;;0.30;99.90;;;;;;5077879;28;20723;-74
2023/01/22 04:59:42;;;;;;;1999.90;999.90;;;0.30;99.90;;;;;;5076245;28;20036;-74
2023/01/22 05:02:08;;;;;;;1999.90;999.90;;;0.30;99.90;;;;;;5077759;28;20069;-74
2023/01/22 05:04:33;;;;;;;1999.90;999.90;;;0.30;99.90;;;;;;5077152;28;20097;-74
2023/01/22 05:06:59;;;;;;;1999.90;999.90;;;0.40;99.90;;;;;;5075942;28;20092;-74
2023/01/22 05:09:25;;;;;;;1999.90;999.90;;;0.30;99.90;;;;;;5077136;28;20037;-74
2023/01/22 05:11:50;;;;;;;1999.90;999.90;;;0.30;99.90;;;;;;5077442;28;20033;-74
2023/01/22 05:14:16;;;;;;;1999.90;999.90;;;0.40;99.90;;;;;;5076968;28;20049;-74
2023/01/22 05:16:42;;;;;;;1999.90;999.90;;;0.30;99.90;;;;;;5077318;28;20035;-74
2023/01/22 05:19:07;;;;;;;1999.90;999.90;;;0.30;99.90;;;;;;5077277;28;20037;-74
2023/01/22 05:21:33;;;;;;;1999.90;999.90;;;0.30;99.90;;;;;;5077519;28;20108;-74
2023/01/22 05:23:58;;;;;;;1999.90;999.90;;;0.40;99.90;;;;;;5077141;28;20784;-75
2023/01/22 05:26:24;;;;;;;1999.90;999.90;;;0.40;99.90;;;;;;5077166;28;20493;-74
2023/01/22 05:28:49;;;;;;;1999.90;999.90;;;0.40;99.90;;;;;;5077237;28;20112;-74
2023/01/22 05:31:15;;;;;;;1999.90;999.90;;;0.40;99.90;;;;;;5077354;28;20029;-74
2023/01/22 05:33:41;;;;;;;1999.90;999.90;;;0.40;99.90;;;;;;5075440;28;20032;-74
2023/01/22 05:36:08;;;;;;;1999.90;999.90;;;0.40;99.90;;;;;;5075638;28;20044;-74
2023/01/22 05:38:34;;;;;;;1999.90;999.90;;;0.40;99.90;;;;;;5077228;28;20112;-76
2023/01/22 05:40:59;;;;;;;1999.90;999.90;;;0.40;99.90;;;;;;5077433;28;20039;-75
2023/01/22 05:43:25;;;;;;;1999.90;999.90;;;0.40;99.90;;;;;;5075440;28;20039;-75
2023/01/22 05:45:50;;;;;;;1999.90;999.90;;;0.40;99.90;;;;;;5076402;28;20033;-75
2023/01/22 05:48:16;;;;;;;1999.90;999.90;;;0.40;99.90;;;;;;5076954;28;20726;-75
2023/01/22 05:50:42;;;;;;;1999.90;999.90;;;0.40;99.90;;;;;;5076962;28;20387;-75
2023/01/22 05:53:07;;;;;;;1999.90;999.90;;;0.40;99.90;;;;;;5076737;28;20029;-74
2023/01/22 05:55:34;;;;;;;1999.90;999.90;;;0.40;99.90;;;;;;5075240;28;20099;-75
2023/01/22 05:58:00;;;;;;;1999.90;999.90;;;0.50;99.90;;;;;;5075258;28;20063;-75
2023/01/22 06:00:25;;;;;;;1999.90;999.90;;;0.50;99.90;;;;;;5076600;28;20033;-74
2023/01/22 06:02:58;;;;;;;1999.90;999.90;;;0.50;99.90;;;;;;5077103;28;20079;-74
2023/01/22 06:05:24;;;;;;;1999.90;999.90;;;0.50;99.90;;;;;;5076918;28;20577;-75
2023/01/22 06:07:50;;;;;;;1999.90;999.90;;;0.50;99.90;;;;;;5076999;28;20041;-75
2023/01/22 06:10:16;;;;;;;1999.90;999.90;;;0.50;99.90;;;;;;5077116;28;20116;-75
2023/01/22 06:12:42;;;;;;;1999.90;999.90;;;0.50;99.90;;;;;;5076797;28;20029;-75
2023/01/22 06:15:08;;;;;;;1999.90;999.90;;;0.50;99.90;;;;;;5075019;28;20049;-75
2023/01/22 06:17:33;;;;;;;1999.90;999.90;;;0.50;99.90;;;;;;5075268;28;20048;-75
2023/01/22 06:19:59;;;;;;;1999.90;999.90;;;0.50;99.90;;;;;;5076194;28;20499;-75
2023/01/22 06:22:24;;;;;;;1999.90;999.90;;;0.50;99.90;;;;;;5076215;28;20807;-75
2023/01/22 06:24:50;;;;;;;1999.90;999.90;;;0.50;99.90;;;;;;5075945;28;20041;-75
2023/01/22 06:27:16;;;;;;;1999.90;999.90;;;0.50;99.90;;;;;;5076420;28;20061;-75
2023/01/22 06:29:42;;;;;;;1999.90;999.90;;;0.40;99.90;;;;;;5076282;28;20040;-75
2023/01/22 06:32:07;;;;;;;1999.90;999.90;;;0.40;99.90;;;;;;5074843;28;20507;-75
2023/01/22 06:34:33;;;;;;;1999.90;999.90;;;0.40;99.90;;;;;;5076180;28;20039;-75
2023/01/22 06:36:58;;;;;;;1999.90;999.90;;;0.50;99.90;;;;;;5075969;28;20032;-75
2023/01/22 06:39:24;;;;;;;1999.90;999.90;;;0.50;99.90;;;;;;5076509;28;20060;-75
2023/01/22 06:41:49;;;;;;;1999.90;999.90;;;0.40;99.90;;;;;;5076730;28;20490;-75
2023/01/22 06:44:16;;;;;;;1999.90;999.90;;;0.50;99.90;;;;;;5076692;28;20033;-75
2023/01/22 06:46:42;;;;;;;1999.90;999.90;;;0.40;99.90;;;;;;5075481;28;20033;-75
2023/01/22 06:49:09;;;;;;;1999.90;999.90;;;0.50;99.90;;;;;;5076820;28;20044;-74
2023/01/22 06:51:34;;;;;;;1999.90;999.90;;;0.50;99.90;;;;;;5077448;28;20056;-74
2023/01/22 06:54:00;;;;;;;1999.90;999.90;;;0.50;99.90;;;;;;5077768;28;20108;-76
2023/01/22 06:56:27;;;;;;;1999.90;999.90;;;0.50;99.90;;;;;;5085484;28;20029;-75
2023/01/22 06:58:52;;;;;;;1999.90;999.90;;;0.50;99.90;;;;;;5086075;28;20033;-75
2023/01/22 07:01:18;;;;;;;1999.90;999.90;;;0.50;99.90;;;;;;5077306;28;20033;-75
2023/01/22 07:03:44;;;;;;;1999.90;999.90;;;0.50;99.90;;;;;;5075259;28;20116;-75
2023/01/22 07:06:10;;;;;;;1999.90;999.90;;;0.60;99.90;;;;;;5078290;28;20028;-76
2023/01/22 07:08:36;;;;;;;1999.90;999.90;;;0.60;99.90;;;;;;5076738;28;20033;-75
2023/01/22 07:11:02;;;;;;;1999.90;999.90;;;0.60;99.90;;;;;;5078477;28;20079;-75
2023/01/22 07:13:27;;;;;;;1999.90;999.90;;;0.60;99.90;;;;;;5077443;28;20072;-76
2023/01/22 07:15:53;;;;;;;1999.90;999.90;;;0.60;99.90;;;;;;5078654;28;20497;-75
2023/01/22 07:18:20;;;;;;;1999.90;999.90;;;0.60;99.90;;;;;;5076010;28;20372;-76
2023/01/22 07:20:46;;;;;;;1999.90;999.90;;;0.60;99.90;;;;;;5075700;28;20056;-74
2023/01/22 07:23:12;;;;;;;1999.90;999.90;;;0.60;99.90;;;;;;5075748;28;20475;-74
2023/01/22 07:25:38;;;;;;;1999.90;999.90;;;0.60;99.90;;;;;;5075403;28;20037;-74
2023/01/22 07:28:05;;;;;;;1999.90;999.90;;;0.70;99.90;;;;;;5074767;28;20029;-75
2023/01/22 07:30:30;;;;;;;1999.90;999.90;;;0.70;99.90;;;;;;5075828;28;20041;-75
2023/01/22 07:33:02;;;;;;;1999.90;999.90;;;0.70;99.90;;;;;;5078969;28;20330;-81
2023/01/22 07:35:28;;;;;;;1999.90;999.90;;;0.20;99.90;;;;;;5078992;28;20044;-80
2023/01/22 07:37:56;;;;;;;1999.90;999.90;;;0.80;99.90;;;;;;5075699;28;20029;-74
2023/01/22 07:40:23;;;;;;;1999.90;999.90;;;0.80;99.90;;;;;;5074090;28;20569;-77
2023/01/22 07:42:49;;;;;;;1999.90;999.90;;;0.90;99.90;;;;;;5073313;28;20029;-73
2023/01/22 07:45:19;;;;;;;1999.90;999.90;;;0.90;99.90;;;;;;5074432;28;20144;-75
2023/01/22 07:47:55;;;;;;;1999.90;999.90;;;0.90;99.90;;;;;;5075096;28;20033;-74
2023/01/22 07:50:22;;;;;;;1999.90;999.90;;;0.90;99.90;;;;;;5074105;28;20037;-77
2023/01/22 07:52:48;;;;;;;1999.90;999.90;;;1.00;99.90;;;;;;5075467;28;20033;-77
2023/01/22 07:55:14;;;;;;;1999.90;999.90;;;1.10;99.90;;;;;;5076361;28;20037;-76
2023/01/22 07:57:40;;;;;;;1999.90;999.90;;;1.00;99.90;;;;;;5076083;28;20044;-75
2023/01/22 08:00:09;;;;;;;1999.90;999.90;;;1.00;99.90;;;;;;5075958;28;20495;-74
2023/01/22 08:02:35;;;;;;;1999.90;999.90;;;1.10;99.90;;;;;;5076174;28;20067;-76
2023/01/22 08:05:01;;;;;;;1999.90;999.90;;;1.10;99.90;;;;;;5076301;28;20033;-76
2023/01/22 08:07:26;;;;;;;1999.90;999.90;;;1.10;99.90;;;;;;5076207;28;20140;-76
2023/01/22 08:09:52;;;;;;;1999.90;999.90;;;1.10;99.90;;;;;;5074678;28;20550;-75
2023/01/22 08:12:17;;;;;;;1999.90;999.90;;;1.20;99.90;;;;;;5076034;28;20087;-76
2023/01/22 08:14:43;;;;;;;1999.90;999.90;;;1.20;99.90;;;;;;5075855;28;20090;-76
2023/01/22 08:17:08;;;;;;;1999.90;999.90;;;1.20;99.90;;;;;;5074645;28;20037;-75
2023/01/22 08:19:34;;;;;;;1999.90;999.90;;;1.20;99.90;;;;;;5074923;28;20032;-75
2023/01/22 08:21:59;;;;;;;1999.90;999.90;;;1.20;99.90;;;;;;5073459;28;20029;-76
2023/01/22 08:24:25;;;;;;;1999.90;999.90;;;1.20;99.90;;;;;;5074996;28;20056;-75
2023/01/22 08:26:50;;;;;;;1999.90;999.90;;;1.20;99.90;;;;;;5074894;28;20441;-76
2023/01/22 08:29:16;;;;;;;1999.90;999.90;;;1.20;99.90;;;;;;5074716;28;20320;-75
2023/01/22 08:31:41;;;;;;;1999.90;999.90;;;1.20;99.90;;;;;;5075231;28;20151;-76
2023/01/22 08:34:07;;;;;;;1999.90;999.90;;;1.20;99.90;;;;;;5074715;28;20048;-76
2023/01/22 08:36:32;;;;;;;1999.90;999.90;;;1.30;99.90;;;;;;5074543;28;20383;-77
2023/01/22 08:38:58;;;;;;;1999.90;999.90;;;1.30;99.90;;;;;;5074925;28;20041;-76
2023/01/22 08:41:23;;;;;;;1999.90;999.90;;;1.30;99.90;;;;;;5074637;28;20483;-76
2023/01/22 08:43:50;;;;;;;1999.90;999.90;;;1.20;99.90;;;;;;5074773;28;20048;-76
2023/01/22 08:46:16;;;;;;;1999.90;999.90;;;1.30;99.90;;;;;;5074799;28;20033;-76
2023/01/22 08:48:43;;;;;;;1999.90;999.90;;;1.30;99.90;;;;;;5072889;28;20033;-76
2023/01/22 08:51:09;;;;;;;1999.90;999.90;;;1.30;99.90;;;;;;5075273;28;20056;-78
2023/01/22 08:53:34;;;;;;;1999.90;999.90;;;1.30;99.90;;;;;;5075150;28;20508;-80
2023/01/22 08:56:00;;;;;;;1999.90;999.90;;;1.30;99.90;;;;;;5073080;28;20037;-76
2023/01/22 08:58:26;;;;;;;1999.90;999.90;;;1.40;99.90;;;;;;5073096;28;20060;-74
2023/01/22 09:00:53;;;;;;;1999.90;999.90;;;1.50;99.90;;;;;;5075279;28;20511;-77
2023/01/22 09:03:19;;;;;;;1999.90;999.90;;;1.50;99.90;;;;;;5074616;28;20063;-75
2023/01/22 09:05:45;;;;;;;1999.90;999.90;;;1.60;99.90;;;;;;5074196;28;20075;-76
2023/01/22 09:08:10;;;;;;;1999.90;999.90;;;1.60;99.90;;;;;;5074603;28;20025;-74
2023/01/22 09:10:36;;;;;;;1999.90;999.90;;;1.60;99.90;;;;;;5078106;28;20051;-74
2023/01/22 09:13:01;;;;;;;1999.90;999.90;;;1.60;99.90;;;;;;5074124;28;20076;-75
2023/01/22 09:15:27;;;;;;;1999.90;999.90;;;1.60;99.90;;;;;;5073895;28;20069;-72
2023/01/22 09:17:53;;;;;;;1999.90;999.90;;;1.60;99.90;;;;;;5073813;28;20402;-73
2023/01/22 09:20:18;;;;;;;1999.90;999.90;;;1.60;99.90;;;;;;5075424;28;20041;-71
2023/01/22 09:22:45;;;;;;;1999.90;999.90;;;1.70;99.90;;;;;;5076887;28;20069;-73
2023/01/22 09:25:11;;;;;;;1999.90;999.90;;;1.80;99.90;;;;;;5076792;28;20060;-72
2023/01/22 09:27:36;;;;;;;1999.90;999.90;;;1.80;99.90;;;;;;5076491;28;20048;-71
2023/01/22 09:30:02;;;;;;;1999.90;999.90;;;1.90;99.90;;;;;;5077271;28;20033;-72
2023/01/22 09:32:28;;;;;;;1999.90;999.90;;;2.00;99.90;;;;;;5076933;28;20091;-76
2023/01/22 09:34:53;;;;;;;1999.90;999.90;;;1.90;99.90;;;;;;5076583;28;20041;-76
2023/01/22 09:37:19;;;;;;;1999.90;999.90;;;1.80;99.90;;;;;;5075704;28;20479;-76
2023/01/22 09:39:49;;;;;;;1999.90;999.90;;;1.80;99.90;;;;;;5077467;28;20033;-76
2023/01/22 09:42:23;;;;;;;1999.90;999.90;;;1.90;99.90;;;;;;5077517;28;20475;-76
2023/01/22 09:44:54;;;;;;;1999.90;999.90;;;1.80;99.90;;;;;;5077007;28;20041;-77
2023/01/22 09:47:43;;;;;;;1999.90;999.90;;;1.90;99.90;;;;;;5077140;28;20033;-76
2023/01/22 09:50:16;;;;;;;1999.90;999.90;;;1.90;99.90;;;;;;5077550;28;20170;-75
2023/01/22 09:52:42;;;;;;;1999.90;999.90;;;1.90;99.90;;;;;;5077105;28;20497;-75
2023/01/22 09:55:17;;;;;;;1999.90;999.90;;;1.80;99.90;;;;;;5075009;28;20163;-75
2023/01/22 09:57:48;;;;;;;1999.90;999.90;;;2.00;99.90;;;;;;5076684;28;20041;-75
2023/01/22 10:00:43;;;;;;;1999.90;999.90;;;2.00;99.90;;;;;;5076727;28;20044;-75
2023/01/22 10:03:35;;;;;;;1999.90;999.90;;;2.10;99.90;;;;;;5076527;28;20123;-75
2023/01/22 10:06:24;;;;;;;1999.90;999.90;;;2.30;99.90;;;;;;5075810;28;20041;-75
2023/01/22 10:09:02;;;;;;;1999.90;999.90;;;2.40;99.90;;;;;;5075965;28;20053;-75
2023/01/22 10:11:28;;;;;;;1999.90;999.90;;;2.60;99.90;;;;;;5075116;28;20064;-75
2023/01/22 10:13:58;;;;;;;1999.90;999.90;;;2.50;99.90;;;;;;5075746;28;20108;-75
2023/01/22 10:16:24;;;;;;;1999.90;999.90;;;2.60;99.90;;;;;;5076316;28;20036;-75
2023/01/22 10:19:16;;;;;;;1999.90;999.90;;;2.60;99.90;;;;;;5074931;28;20037;-75
2023/01/22 10:21:49;;;;;;;1999.90;999.90;;;2.70;99.90;;;;;;5076625;28;20561;-75
2023/01/22 10:24:14;;;;;;;1999.90;999.90;;;2.80;99.90;;;;;;5075810;28;20033;-75
2023/01/22 10:27:15;;;;;;;1999.90;999.90;;;2.60;99.90;;;;;;5076036;28;20037;-75
2023/01/22 10:29:44;;;;;;;1999.90;999.90;;;2.60;99.90;;;;;;5076222;28;20033;-75
2023/01/22 10:32:27;;;;;;;1999.90;999.90;;;2.70;99.90;;;;;;5075940;28;20025;-75
2023/01/22 10:35:16;;;;;;;1999.90;999.90;;;2.90;99.90;;;;;;5075976;28;20037;-75
2023/01/22 10:37:53;;;;;;;1999.90;999.90;;;3.00;99.90;;;;;;5074546;28;20080;-75
2023/01/22 10:40:29;;;;;;;1999.90;999.90;;;3.00;99.90;;;;;;5076028;28;20044;-75
2023/01/22 10:43:02;;;;;;;1999.90;999.90;;;2.90;99.90;;;;;;5074586;28;20029;-75
2023/01/22 10:45:28;;;;;;;1999.90;999.90;;;3.10;99.90;;;;;;5075381;28;20033;-75
2023/01/22 10:48:23;;;;;;;1999.90;999.90;;;3.00;99.90;;;;;;5074300;28;20032;-75
2023/01/22 10:51:10;;;;;;;1999.90;999.90;;;2.90;99.90;;;;;;5062356;28;20481;-75
2023/01/22 10:53:43;;;;;;;1999.90;999.90;;;2.80;99.90;;;;;;5076042;28;20029;-75
2023/01/22 10:56:10;;;;;;;1999.90;999.90;;;2.80;99.90;;;;;;5074214;28;20037;-76
2023/01/22 10:58:38;;;;;;;1999.90;999.90;;;2.80;99.90;;;;;;5075661;28;20035;-74
2023/01/22 11:01:18;;;;;;;1999.90;999.90;;;2.80;99.90;;;;;;5075897;28;20041;-74
2023/01/22 11:03:44;;;;;;;1999.90;999.90;;;2.90;99.90;;;;;;5075249;28;20029;-76
2023/01/22 11:06:14;;;;;;;1999.90;999.90;;;2.70;99.90;;;;;;5075590;28;20044;-74
2023/01/22 11:09:06;;;;;;;1999.90;999.90;;;2.80;99.90;;;;;;5075459;28;20076;-74
2023/01/22 11:11:40;;;;;;;1999.90;999.90;;;2.80;99.90;;;;;;5075794;28;20128;-74
2023/01/22 11:14:13;;;;;;;1999.90;999.90;;;2.70;99.90;;;;;;5074913;28;20045;-74
2023/01/22 11:16:41;;;;;;;1999.90;999.90;;;2.70;99.90;;;;;;5075177;28;20462;-74
2023/01/22 11:19:15;;;;;;;1999.90;999.90;;;2.60;99.90;;;;;;5075089;28;20037;-74
2023/01/22 11:21:51;;;;;;;1999.90;999.90;;;2.60;99.90;;;;;;5068513;28;20518;-74
2023/01/22 11:24:20;;;;;;;1999.90;999.90;;;2.60;99.90;;;;;;5074393;28;20037;-73
2023/01/22 11:26:58;;;;;;;1999.90;999.90;;;2.60;99.90;;;;;;5076105;28;20025;-77
2023/01/22 11:30:12;;;;;;;1999.90;999.90;;;2.70;99.90;;;;;;5098957;27;20041;-76
2023/01/22 11:33:02;;;;;;;1999.90;999.90;;;2.50;99.90;;;;;;5043549;28;20057;-75
2023/01/22 11:35:46;;;;;;;1999.90;999.90;;;2.40;99.90;;;;;;5075018;28;20109;-75
2023/01/22 11:38:25;;;;;;;1999.90;999.90;;;2.50;99.90;;;;;;5074095;28;20367;-77
2023/01/22 11:41:15;;;;;;;1999.90;999.90;;;2.60;99.90;;;;;;5075414;28;20064;-74
2023/01/22 11:44:04;;;;;;;1999.90;999.90;;;2.50;99.90;;;;;;5072759;28;20044;-76
2023/01/22 11:46:29;;;;;;;1999.90;999.90;;;2.60;99.90;;;;;;5033949;28;20037;-76
2023/01/22 11:49:00;;;;;;;1999.90;999.90;;;2.60;99.90;;;;;;5073731;28;20499;-73
2023/01/22 11:51:38;;;;;;;1999.90;999.90;;;2.70;99.90;;;;;;5074931;28;20036;-72
2023/01/22 11:54:23;;;;;;;1999.90;999.90;;;2.90;99.90;;;;;;5074631;28;20041;-76
2023/01/22 11:57:07;;;;;;;1999.90;999.90;;;3.00;99.90;;;;;;5063353;28;20030;-76
2023/01/22 12:00:11;;;;;;;1999.90;999.90;;;2.80;99.90;;;;;;5068917;28;20037;-73
2023/01/22 12:03:12;;;;;;;1999.90;999.90;;;2.90;99.90;;;;;;5075065;28;20068;-73
2023/01/22 12:05:40;;;;;;;1999.90;999.90;;;3.10;99.90;;;;;;5074502;28;20041;-73
2023/01/22 12:08:42;;;;;;;1999.90;999.90;;;3.10;99.90;;;;;;5074109;28;20465;-74
2023/01/22 12:11:29;;;;;;;1999.90;999.90;;;3.20;99.90;;;;;;5074795;28;20033;-75
2023/01/22 12:14:01;;;;;;;1999.90;999.90;;;3.20;99.90;;;;;;5073314;28;20116;-75
2023/01/22 12:16:51;;;;;;;1999.90;999.90;;;3.30;99.90;;;;;;5074907;28;20037;-75
2023/01/22 12:19:39;;;;;;;1999.90;999.90;;;3.20;99.90;;;;;;5074112;28;20029;-77
2023/01/22 12:22:25;;;;;;;1999.90;999.90;;;3.10;99.90;;;;;;5075316;28;20025;-76
2023/01/22 12:24:58;;;;;;;1999.90;999.90;;;3.10;99.90;;;;;;5070390;28;20537;-73
2023/01/22 12:27:35;;;;;;;1999.90;999.90;;;3.30;99.90;;;;;;5074407;28;20155;-73
2023/01/22 12:30:22;;;;;;;1999.90;999.90;;;3.40;99.90;;;;;;5074609;28;20502;-72